Time;durP1;ratioP1;P1;durP2;ratioP2;P2;SDS_P1;SDS_P2;PMS_P1;PMS_P2;Temp;Humidity;BMP_temperature;BMP_pressure;BME280_temperature;BME280_humidity;BME280_pressure;Samples;Min_cycle;Max_cycle;Signal;HPM_P1;HPM_P2
2022/09/28 00:00:57;;;;;;;0.80;0.32;;;;;;;8.48;85.08;97466.47;5088873;28;20086;-58
2022/09/28 00:03:43;;;;;;;0.28;0.10;;;;;;;8.57;85.48;97456.28;5089415;28;20069;-55
2022/09/28 00:06:30;;;;;;;1.40;0.10;;;;;;;8.59;85.44;97464.78;5091321;28;20183;-58
2022/09/28 00:09:15;;;;;;;0.68;0.20;;;;;;;8.50;86.47;97461.13;5093228;28;20032;-55
2022/09/28 00:12:00;;;;;;;1.23;0.20;;;;;;;8.47;85.93;97458.78;5090638;28;20119;-56
2022/09/28 00:14:45;;;;;;;0.52;0.20;;;;;;;8.55;86.33;97455.56;5088255;28;20044;-57
2022/09/28 00:17:29;;;;;;;1.13;0.10;;;;;;;8.54;87.13;97462.53;5086657;28;20113;-57
2022/09/28 00:20:16;;;;;;;0.47;0.15;;;;;;;8.58;86.76;97463.16;5088992;28;20040;-56
2022/09/28 00:23:00;;;;;;;0.60;0.20;;;;;;;8.53;86.93;97442.59;5089538;28;20044;-56
2022/09/28 00:25:45;;;;;;;0.93;0.40;;;;;;;8.53;87.34;97449.59;5093737;28;20043;-58
2022/09/28 00:28:31;;;;;;;0.85;0.17;;;;;;;8.40;88.07;97449.75;5088866;28;20052;-56
2022/09/28 00:31:16;;;;;;;1.80;0.20;;;;;;;8.36;88.77;97446.56;5102526;27;20040;-54
2022/09/28 00:34:03;;;;;;;0.47;0.25;;;;;;;8.30;89.47;97452.28;5086005;28;20048;-61
2022/09/28 00:36:48;;;;;;;0.55;0.20;;;;;;;8.31;89.65;97451.31;5088926;28;20071;-55
2022/09/28 00:39:34;;;;;;;0.40;0.20;;;;;;;8.30;90.63;97447.91;5091245;28;20102;-55
2022/09/28 00:42:22;;;;;;;0.38;0.17;;;;;;;8.17;91.13;97439.41;5089002;28;20044;-57
2022/09/28 00:45:08;;;;;;;0.88;0.15;;;;;;;8.12;91.22;97429.31;5089754;28;20036;-54
2022/09/28 00:47:57;;;;;;;0.47;0.20;;;;;;;8.25;90.89;97416.97;5091077;28;20036;-56
2022/09/28 00:50:42;;;;;;;0.80;0.30;;;;;;;8.25;90.28;97418.75;5092681;28;20046;-54
2022/09/28 00:53:31;;;;;;;0.28;0.17;;;;;;;8.37;89.51;97420.34;5086950;28;20130;-58
2022/09/28 00:56:20;;;;;;;0.25;0.17;;;;;;;8.51;87.92;97413.19;5091536;28;20089;-55
2022/09/28 00:59:07;;;;;;;1.20;0.20;;;;;;;8.52;87.26;97420.06;5089565;28;20046;-59
2022/09/28 01:01:52;;;;;;;0.28;0.10;;;;;;;8.62;86.41;97420.16;5087277;28;20071;-57
2022/09/28 01:04:37;;;;;;;0.45;0.20;;;;;;;8.71;85.86;97429.88;5087813;28;20048;-55
2022/09/28 01:07:22;;;;;;;1.23;0.20;;;;;;;8.70;85.80;97428.19;5083749;28;20399;-52
2022/09/28 01:10:07;;;;;;;0.82;0.10;;;;;;;8.70;86.64;97419.56;5087271;28;20114;-57
2022/09/28 01:12:54;;;;;;;0.20;0.10;;;;;;;8.64;86.53;97418.25;5088275;28;20421;-58
2022/09/28 01:15:55;;;;;;;2.42;0.20;;;;;;;8.56;86.76;97426.72;5088767;28;20032;-57
2022/09/28 01:18:59;;;;;;;0.40;0.10;;;;;;;8.48;87.92;97436.94;5091966;28;20115;-57
2022/09/28 01:21:57;;;;;;;0.52;0.10;;;;;;;8.43;88.80;97449.50;5102364;27;20028;-54
2022/09/28 01:24:45;;;;;;;0.50;0.20;;;;;;;8.37;89.07;97443.03;5092058;28;20123;-57
2022/09/28 01:27:41;;;;;;;0.93;0.38;;;;;;;8.34;89.72;97438.06;5080901;28;20369;-59
2022/09/28 01:30:27;;;;;;;0.68;0.25;;;;;;;8.29;90.11;97443.63;5087137;28;20036;-59
2022/09/28 01:33:19;;;;;;;0.45;0.20;;;;;;;8.34;90.27;97444.09;5086145;28;20048;-58
2022/09/28 01:36:33;;;;;;;1.23;0.20;;;;;;;8.50;88.55;97453.31;5089465;28;20044;-55
2022/09/28 01:39:25;;;;;;;0.40;0.10;;;;;;;8.66;87.74;97472.97;5087594;28;20028;-56
2022/09/28 01:42:18;;;;;;;0.55;0.20;;;;;;;8.67;86.95;97461.56;5088404;28;20055;-56
2022/09/28 01:45:09;;;;;;;0.50;0.22;;;;;;;8.78;85.89;97468.53;5088358;28;20039;-59
2022/09/28 01:47:59;;;;;;;2.13;0.20;;;;;;;8.88;85.62;97466.81;5090436;28;20831;-56
2022/09/28 01:50:46;;;;;;;0.68;0.10;;;;;;;8.91;84.89;97453.47;5103752;28;20040;-59
2022/09/28 01:53:54;;;;;;;0.55;0.10;;;;;;;8.80;84.79;97457.00;5086900;28;20427;-57
2022/09/28 01:56:53;;;;;;;0.38;0.10;;;;;;;8.77;85.07;97465.06;5092754;28;20044;-57
2022/09/28 01:59:48;;;;;;;0.25;0.10;;;;;;;8.89;84.34;97454.56;5085098;28;20054;-57
2022/09/28 02:02:39;;;;;;;0.77;0.10;;;;;;;8.84;84.58;97455.81;5094618;28;20088;-55
2022/09/28 02:05:35;;;;;;;3.22;0.20;;;;;;;8.80;84.18;97453.53;5091589;28;20036;-59
2022/09/28 02:08:32;;;;;;;0.73;0.22;;;;;;;8.79;84.99;97459.72;5089377;28;20172;-57
2022/09/28 02:11:19;;;;;;;1.13;0.10;;;;;;;8.79;84.84;97457.13;5077473;28;20044;-56
2022/09/28 02:14:08;;;;;;;0.10;0.00;;;;;;;8.72;84.57;97452.41;5084830;28;20114;-56
2022/09/28 02:16:55;;;;;;;3.60;0.25;;;;;;;8.73;84.62;97454.03;5081933;28;20036;-57
2022/09/28 02:19:45;;;;;;;0.17;0.10;;;;;;;8.77;84.33;97459.84;5082418;28;20059;-56
2022/09/28 02:22:39;;;;;;;0.38;0.15;;;;;;;8.75;84.48;97453.91;5086488;28;20391;-56
2022/09/28 02:25:34;;;;;;;0.60;0.00;;;;;;;8.69;84.71;97451.81;5113028;28;20089;-54
2022/09/28 02:28:18;;;;;;;0.73;0.10;;;;;;;8.60;85.43;97440.38;5084334;28;20095;-61
2022/09/28 02:31:03;;;;;;;0.47;0.10;;;;;;;8.48;85.87;97449.97;5085185;28;20048;-57
2022/09/28 02:33:50;;;;;;;0.13;0.03;;;;;;;8.42;86.47;97446.06;5085511;28;20048;-56
2022/09/28 02:36:34;;;;;;;0.40;0.20;;;;;;;8.42;86.12;97446.06;5099896;28;20062;-53
2022/09/28 02:39:19;;;;;;;0.00;0.00;;;;;;;8.36;86.58;97450.00;5094128;28;20036;-57
2022/09/28 02:42:04;;;;;;;0.63;0.32;;;;;;;8.42;85.42;97440.84;5096426;28;20040;-58
2022/09/28 02:45:09;;;;;;;0.22;0.20;;;;;;;8.42;85.64;97440.03;5105135;28;20056;-55
2022/09/28 02:48:46;;;;;;;0.70;0.10;;;;;;;8.45;85.29;97439.78;5064587;28;20036;-59
2022/09/28 02:51:46;;;;;;;0.20;0.10;;;;;;;8.57;84.92;97449.25;5070732;28;20134;-55
2022/09/28 02:54:46;;;;;;;1.33;0.10;;;;;;;8.59;85.04;97449.97;5070338;28;20044;-58
2022/09/28 02:57:47;;;;;;;0.80;0.10;;;;;;;8.60;85.18;97448.19;5073217;28;20058;-54
2022/09/28 03:00:40;;;;;;;0.10;0.00;;;;;;;8.61;85.56;97453.28;5070042;28;20079;-58
2022/09/28 03:04:00;;;;;;;0.63;0.10;;;;;;;8.64;85.27;97460.03;5084389;28;20138;-56
2022/09/28 03:07:08;;;;;;;0.45;0.00;;;;;;;8.61;85.40;97455.06;5084817;28;20040;-57
2022/09/28 03:10:04;;;;;;;1.02;0.10;;;;;;;8.61;85.58;97457.66;5059828;28;20108;-59
2022/09/28 03:12:51;;;;;;;0.10;0.10;;;;;;;8.50;86.01;97448.88;5065739;28;20048;-58
2022/09/28 03:15:36;;;;;;;0.10;0.10;;;;;;;8.53;86.57;97447.81;5069362;28;20555;-55
2022/09/28 03:18:21;;;;;;;1.05;0.10;;;;;;;8.48;86.79;97447.38;5055984;28;20125;-54
2022/09/28 03:21:08;;;;;;;0.45;0.17;;;;;;;8.50;87.01;97443.66;5071822;28;20177;-56
2022/09/28 03:23:52;;;;;;;0.57;0.10;;;;;;;8.49;87.21;97449.00;5087015;28;20111;-55
2022/09/28 03:26:38;;;;;;;0.25;0.08;;;;;;;8.60;87.35;97449.00;5092308;28;20357;-54
2022/09/28 03:29:23;;;;;;;0.60;0.15;;;;;;;8.52;88.38;97445.34;5092932;28;20039;-52
2022/09/28 03:32:15;;;;;;;0.30;0.10;;;;;;;8.37;90.80;97448.25;5096423;28;20114;-55
2022/09/28 03:35:00;;;;;;;0.10;0.10;;;;;;;8.31;91.98;97454.78;5085467;28;20046;-54
2022/09/28 03:37:44;;;;;;;0.50;0.20;;;;;;;8.43;91.44;97458.19;5087465;28;20036;-54
2022/09/28 03:40:29;;;;;;;0.10;0.10;;;;;;;8.56;89.88;97457.22;5089229;28;20048;-53
2022/09/28 03:43:14;;;;;;;0.30;0.10;;;;;;;8.58;89.79;97450.94;5090091;28;20047;-56
2022/09/28 03:46:00;;;;;;;0.75;0.10;;;;;;;8.59;88.65;97441.28;5097483;28;20032;-51
2022/09/28 03:48:47;;;;;;;0.32;0.13;;;;;;;8.56;89.63;97431.94;5092022;28;20129;-55
2022/09/28 03:51:31;;;;;;;1.00;0.10;;;;;;;8.58;90.30;97455.31;5089680;28;20134;-56
2022/09/28 03:54:16;;;;;;;1.92;0.10;;;;;;;8.67;89.42;97446.72;5088772;28;20146;-54
2022/09/28 03:57:01;;;;;;;0.70;0.10;;;;;;;8.67;88.89;97445.88;5088843;28;20083;-56
2022/09/28 03:59:45;;;;;;;0.13;0.08;;;;;;;8.63;88.70;97450.56;5090666;28;20040;-56
2022/09/28 04:02:30;;;;;;;0.75;0.20;;;;;;;8.60;88.38;97450.81;5103164;28;20032;-56
2022/09/28 04:05:15;;;;;;;0.30;0.15;;;;;;;8.61;89.71;97452.44;5089180;28;20107;-54
2022/09/28 04:08:00;;;;;;;0.20;0.05;;;;;;;8.63;89.11;97448.75;5095865;28;20032;-56
2022/09/28 04:10:46;;;;;;;0.13;0.10;;;;;;;8.61;88.85;97442.84;5107971;28;20383;-55
2022/09/28 04:13:31;;;;;;;0.40;0.10;;;;;;;8.70;88.46;97440.44;5095379;27;20043;-57
2022/09/28 04:16:26;;;;;;;0.10;0.10;;;;;;;8.65;89.39;97435.56;5082391;28;20051;-56
2022/09/28 04:19:26;;;;;;;0.10;0.05;;;;;;;8.79;88.75;97433.63;5083026;28;20040;-57
2022/09/28 04:22:43;;;;;;;0.68;0.10;;;;;;;8.86;87.47;97440.00;5064306;28;20047;-58
2022/09/28 04:25:27;;;;;;;0.50;0.10;;;;;;;8.91;87.46;97445.66;5070362;28;20065;-54
2022/09/28 04:31:20;;;;;;;0.80;0.10;;;;;;;8.92;86.79;97436.88;5044203;28;20093;-56
2022/09/28 04:34:07;;;;;;;0.85;0.22;;;;;;;8.90;87.02;97433.56;5072073;28;20044;-56
2022/09/28 04:36:51;;;;;;;0.10;0.10;;;;;;;8.88;88.27;97422.41;5074216;28;20459;-55
2022/09/28 04:39:37;;;;;;;0.32;0.10;;;;;;;8.93;88.96;97424.63;5066589;28;20097;-56
2022/09/28 04:42:21;;;;;;;0.50;0.20;;;;;;;9.02;86.23;97430.88;5071335;28;20931;-57
2022/09/28 04:45:09;;;;;;;0.20;0.17;;;;;;;9.11;88.30;97430.09;5071169;28;20387;-56
2022/09/28 04:47:58;;;;;;;2.38;0.80;;;;;;;9.26;87.87;97430.59;5071602;28;20051;-58
2022/09/28 04:51:06;;;;;;;3.63;0.45;;;;;;;9.27;86.49;97427.03;5082012;28;20040;-61
2022/09/28 04:53:50;;;;;;;9.45;1.50;;;;;;;9.57;88.02;97425.38;5069660;28;20182;-56
2022/09/28 04:56:36;;;;;;;5.88;0.85;;;;;;;9.49;92.16;97414.75;5063750;28;20134;-56
2022/09/28 04:59:21;;;;;;;5.40;0.90;;;;;;;9.29;88.43;97419.88;5101490;28;20036;-55
2022/09/28 05:02:06;;;;;;;4.25;0.82;;;;;;;9.18;87.39;97415.56;5100391;28;20421;-60
2022/09/28 05:05:09;;;;;;;3.25;1.00;;;;;;;9.11;87.05;97417.03;5091380;28;21219;-59
2022/09/28 05:08:17;;;;;;;2.97;0.60;;;;;;;9.06;88.14;97413.97;5065242;28;20052;-58
2022/09/28 05:11:04;;;;;;;2.10;0.85;;;;;;;9.03;88.09;97414.25;5033539;28;20044;-58
2022/09/28 05:13:49;;;;;;;2.63;0.70;;;;;;;9.03;88.59;97407.25;5058553;28;20075;-59
2022/09/28 05:16:35;;;;;;;1.63;0.45;;;;;;;9.02;87.94;97410.81;5052507;28;20078;-56
2022/09/28 05:19:38;;;;;;;1.40;0.43;;;;;;;9.18;86.91;97402.50;5065148;28;20044;-58
2022/09/28 05:22:23;;;;;;;4.70;0.68;;;;;;;9.39;86.12;97414.72;5052125;28;20036;-60
2022/09/28 05:25:08;;;;;;;2.33;0.70;;;;;;;9.67;83.46;97412.34;5042545;28;20167;-57
2022/09/28 05:28:05;;;;;;;2.05;0.50;;;;;;;9.89;83.31;97407.84;5047165;28;20045;-58
2022/09/28 05:31:10;;;;;;;1.58;0.32;;;;;;;10.08;80.91;97412.31;5051922;28;20036;-58
2022/09/28 05:34:08;;;;;;;1.40;0.40;;;;;;;10.17;81.68;97415.88;5031257;28;20040;-58
2022/09/28 05:36:54;;;;;;;2.38;0.63;;;;;;;10.39;80.86;97411.38;5062772;28;20133;-57
2022/09/28 05:39:39;;;;;;;1.38;0.52;;;;;;;10.25;81.04;97409.97;5061186;28;20052;-58
2022/09/28 05:42:24;;;;;;;0.68;0.30;;;;;;;9.88;82.90;97406.19;5033541;28;20041;-59
2022/09/28 05:45:10;;;;;;;1.02;0.40;;;;;;;9.70;83.55;97409.47;5059767;28;20070;-59
2022/09/28 05:47:57;;;;;;;2.42;0.50;;;;;;;9.88;84.85;97402.75;5090326;28;20039;-57
2022/09/28 05:50:42;;;;;;;1.30;0.60;;;;;;;9.93;84.31;97397.94;5091212;28;20039;-57
2022/09/28 05:53:27;;;;;;;2.35;0.90;;;;;;;9.66;86.79;97394.97;5094582;28;20054;-57
2022/09/28 05:56:11;;;;;;;1.45;1.05;;;;;;;9.61;88.10;97384.91;5090022;28;20039;-58
2022/09/28 05:59:04;;;;;;;2.53;1.08;;;;;;;9.65;89.24;97371.56;5090669;28;20070;-58
2022/09/28 06:01:48;;;;;;;1.13;0.80;;;;;;;9.25;89.56;97376.69;5087282;28;20090;-59
2022/09/28 06:04:33;;;;;;;2.08;0.68;;;;;;;9.45;89.13;97351.44;5092648;28;20036;-59
2022/09/28 06:07:18;;;;;;;1.20;0.88;;;;;;;10.10;86.28;97352.00;5105655;28;20047;-58
2022/09/28 06:10:03;;;;;;;2.95;0.90;;;;;;;10.51;84.51;97361.50;5108590;28;20478;-59
2022/09/28 06:13:13;;;;;;;1.38;0.50;;;;;;;10.69;83.53;97362.44;5093653;28;20043;-57
2022/09/28 06:15:59;;;;;;;1.20;0.77;;;;;;;11.21;81.27;97360.41;5079624;28;20062;-58
2022/09/28 06:18:44;;;;;;;1.42;0.80;;;;;;;11.26;79.97;97366.00;5097189;28;20204;-58
2022/09/28 06:21:29;;;;;;;1.88;0.85;;;;;;;10.96;nan;97371.38;5098884;28;20115;-58
2022/09/28 06:24:14;;;;;;;1.48;0.85;;;;;;;10.62;83.59;97387.56;5106684;28;20371;-58
2022/09/28 06:26:59;;;;;;;1.33;0.60;;;;;;;10.28;86.86;97383.50;5088546;28;20071;-58
2022/09/28 06:29:45;;;;;;;1.60;1.00;;;;;;;10.02;88.01;97391.09;5100100;28;20104;-58
2022/09/28 06:32:30;;;;;;;6.30;0.82;;;;;;;9.51;90.76;97384.09;5088741;28;20040;-59
2022/09/28 06:35:15;;;;;;;3.10;1.30;;;;;;;9.27;93.83;97374.75;5095406;28;20048;-59
2022/09/28 06:38:01;;;;;;;3.78;1.67;;;;;;;9.56;94.01;97375.84;5091294;28;20050;-60
2022/09/28 06:40:45;;;;;;;3.72;2.00;;;;;;;9.92;92.09;97355.25;5091923;28;20375;-58
2022/09/28 06:43:30;;;;;;;4.95;2.70;;;;;;;10.30;90.55;97357.19;5089163;28;20063;-57
2022/09/28 06:46:36;;;;;;;3.95;1.67;;;;;;;9.94;93.34;97355.16;5098479;28;20047;-58
2022/09/28 06:49:40;;;;;;;3.05;1.27;;;;;;;9.66;95.33;97349.72;5099372;28;20067;-59
2022/09/28 06:52:27;;;;;;;3.42;1.58;;;;;;;9.14;99.34;97369.75;5100588;28;20066;-58
2022/09/28 06:55:37;;;;;;;5.15;1.50;;;;;;;9.32;99.36;97361.31;5093251;28;20066;-59
2022/09/28 06:58:23;;;;;;;6.80;1.40;;;;;;;10.65;98.14;97352.38;5100741;28;20043;-45
2022/09/28 07:01:08;;;;;;;4.95;1.92;;;;;;;10.67;92.26;97364.41;5089499;28;20068;-47
2022/09/28 07:04:13;;;;;;;11.13;2.33;;;;;;;10.10;96.07;97365.06;5104132;28;20538;-48
2022/09/28 07:07:33;;;;;;;5.78;2.00;;;;;;;10.34;95.39;97369.91;5056622;28;20044;-51
2022/09/28 07:10:35;;;;;;;5.15;2.47;;;;;;;10.06;96.85;97372.34;5059175;28;20222;-50
2022/09/28 07:13:46;;;;;;;7.60;2.45;;;;;;;9.64;100.00;97376.00;5024109;28;20069;-50
2022/09/28 07:16:30;;;;;;;4.63;2.47;;;;;;;9.66;100.00;97378.47;5008486;28;20099;-50
2022/09/28 07:19:15;;;;;;;3.80;2.58;;;;;;;9.84;100.00;97370.81;5016051;28;20045;-48
2022/09/28 07:22:01;;;;;;;6.18;2.83;;;;;;;9.62;100.00;97364.84;4986474;28;20509;-50
2022/09/28 07:24:47;;;;;;;8.30;3.05;;;;;;;9.65;100.00;97361.97;5011924;28;20985;-46
2022/09/28 07:27:58;;;;;;;4.23;2.60;;;;;;;9.94;100.00;97363.78;4977487;28;20130;-50
2022/09/28 07:31:02;;;;;;;6.40;3.20;;;;;;;10.10;100.00;97352.78;4983424;28;20294;-57
2022/09/28 07:34:22;;;;;;;6.20;3.33;;;;;;;9.96;100.00;97346.19;4882418;29;20045;-50
2022/09/28 07:37:29;;;;;;;6.13;3.65;;;;;;;9.89;100.00;97342.44;4887352;29;20082;-50
2022/09/28 07:43:20;;;;;;;6.68;3.67;;;;;;;9.59;100.00;97337.19;4884918;29;20045;-50
2022/09/28 07:46:13;;;;;;;6.70;3.88;;;;;;;9.55;100.00;97337.56;4887682;29;20112;-47
2022/09/28 07:49:24;;;;;;;7.60;4.20;;;;;;;9.30;100.00;97343.13;4896923;29;20503;-46
2022/09/28 07:52:33;;;;;;;15.68;4.40;;;;;;;9.14;100.00;97335.78;4931126;29;20460;-49
2022/09/28 07:55:36;;;;;;;36.90;5.75;;;;;;;9.09;100.00;97341.41;4930443;29;20130;-47
2022/09/28 07:58:59;;;;;;;10.15;3.90;;;;;;;8.93;100.00;97334.03;4932570;28;20040;-48
2022/09/28 08:01:57;;;;;;;8.43;3.90;;;;;;;9.07;100.00;97327.66;4924228;29;20437;-50
2022/09/28 08:04:42;;;;;;;21.90;4.55;;;;;;;9.13;100.00;97323.69;4965876;28;20042;-54
2022/09/28 08:07:27;;;;;;;9.23;4.75;;;;;;;9.07;100.00;97312.00;4977487;28;20046;-50
2022/09/28 08:10:21;;;;;;;6.07;4.00;;;;;;;9.19;100.00;97315.31;5057288;28;20059;-50
2022/09/28 08:13:37;;;;;;;6.82;4.45;;;;;;;9.49;100.00;97303.19;5084427;28;20118;-49
2022/09/28 08:16:38;;;;;;;5.65;4.13;;;;;;;9.83;100.00;97311.59;5089896;28;20039;-51
2022/09/28 08:22:37;;;;;;;6.47;4.38;;;;;;;9.84;100.00;97313.28;5105978;28;20046;-51
2022/09/28 08:25:23;;;;;;;6.57;4.30;;;;;;;9.99;100.00;97313.69;5089122;28;20511;-55
2022/09/28 08:28:08;;;;;;;5.70;3.65;;;;;;;10.17;100.00;97305.97;5089126;28;20086;-54
2022/09/28 08:31:02;;;;;;;5.78;4.13;;;;;;;10.90;100.00;97300.38;5102579;28;20067;-51
2022/09/28 08:33:52;;;;;;;6.30;3.88;;;;;;;10.87;100.00;97303.28;5091293;28;20067;-52
2022/09/28 08:36:56;;;;;;;5.78;3.72;;;;;;;11.61;98.37;97305.13;5098860;28;20047;-51
2022/09/28 08:39:59;;;;;;;6.13;4.10;;;;;;;11.37;98.87;97291.59;5100908;28;20059;-54
2022/09/28 08:42:59;;;;;;;5.55;4.10;;;;;;;11.57;97.17;97287.06;5108125;27;20375;-51
2022/09/28 08:46:08;;;;;;;4.78;3.45;;;;;;;11.80;95.65;97280.56;5116701;27;20066;-49
2022/09/28 08:49:24;;;;;;;5.30;3.55;;;;;;;12.02;94.85;97276.66;5105188;27;20048;-56
2022/09/28 08:52:38;;;;;;;5.40;3.05;;;;;;;12.81;91.75;97281.16;5094295;27;20048;-54
2022/09/28 08:55:45;;;;;;;4.47;3.38;;;;;;;12.81;90.39;97275.91;5095841;27;20041;-52
2022/09/28 08:58:35;;;;;;;4.75;3.22;;;;;;;14.24;83.68;97283.22;5095442;28;20065;-56
2022/09/28 09:01:24;;;;;;;4.53;3.05;;;;;;;14.83;80.75;97265.53;5098221;27;20496;-58
2022/09/28 09:04:11;;;;;;;6.13;3.00;;;;;;;14.88;78.42;97272.91;5108867;27;20069;-59
2022/09/28 09:07:25;;;;;;;4.13;2.65;;;;;;;15.25;77.44;97268.81;5114884;27;20055;-59
2022/09/28 09:10:36;;;;;;;5.50;3.08;;;;;;;15.40;76.33;97265.47;5096341;27;20121;-59
2022/09/28 09:13:27;;;;;;;4.88;2.72;;;;;;;15.88;74.77;97261.84;5102549;27;20551;-56
2022/09/28 09:16:29;;;;;;;3.80;2.60;;;;;;;16.40;72.31;97254.22;5095380;28;20047;-58
2022/09/28 09:19:39;;;;;;;3.40;2.30;;;;;;;16.65;71.20;97255.78;5112439;27;20059;-60
2022/09/28 09:22:44;;;;;;;4.63;2.70;;;;;;;16.43;70.86;97253.84;5096430;28;20113;-52
2022/09/28 09:25:46;;;;;;;4.50;2.45;;;;;;;16.25;71.75;97246.25;5100058;28;20046;-51
2022/09/28 09:28:35;;;;;;;3.03;1.85;;;;;;;17.20;68.04;97245.72;5077883;28;20042;-49
2022/09/28 09:31:48;;;;;;;2.13;1.50;;;;;;;16.34;68.72;97233.75;5096719;28;20038;-56
2022/09/28 09:34:52;;;;;;;1.90;1.38;;;;;;;16.97;68.28;97237.91;5087699;28;20040;-53
2022/09/28 09:38:16;;;;;;;2.05;1.42;;;;;;;17.32;66.52;97232.03;5085059;28;20048;-53
2022/09/28 09:41:31;;;;;;;1.75;0.90;;;;;;;16.90;63.30;97243.09;5084254;28;20047;-55
2022/09/28 09:44:42;;;;;;;1.67;1.00;;;;;;;16.89;63.27;97230.91;5076315;28;20136;-58
2022/09/28 09:48:01;;;;;;;3.83;1.00;;;;;;;17.47;60.75;97213.47;5086791;28;20493;-58
2022/09/28 09:50:52;;;;;;;2.35;1.02;;;;;;;17.20;60.51;97227.22;5089443;28;20071;-59
2022/09/28 09:53:47;;;;;;;1.00;0.70;;;;;;;17.56;60.26;97206.22;5091869;28;20043;-62
2022/09/28 09:56:56;;;;;;;1.65;0.70;;;;;;;18.05;58.93;97222.34;5061594;28;20036;-60
2022/09/28 10:00:17;;;;;;;2.53;0.98;;;;;;;17.66;60.25;97208.56;5085657;28;20036;-61
2022/09/28 10:03:27;;;;;;;2.13;0.80;;;;;;;17.66;58.60;97190.84;5088153;28;20460;-61
2022/09/28 10:06:29;;;;;;;2.00;1.05;;;;;;;17.27;62.69;97224.66;5082563;28;20044;-53
2022/09/28 10:09:25;;;;;;;3.63;0.73;;;;;;;17.19;62.84;97201.78;5065206;28;20047;-61
2022/09/28 10:12:19;;;;;;;2.65;0.70;;;;;;;17.34;63.13;97201.75;5086064;28;20040;-59
2022/09/28 10:15:06;;;;;;;2.47;0.90;;;;;;;16.39;63.19;97199.69;5106013;28;20051;-62
2022/09/28 10:18:07;;;;;;;4.88;0.82;;;;;;;16.90;62.38;97194.69;5110878;27;20043;-61
2022/09/28 10:21:14;;;;;;;2.03;0.80;;;;;;;17.90;59.97;97194.13;5080312;28;20091;-60
2022/09/28 10:24:29;;;;;;;0.93;0.68;;;;;;;17.87;60.09;97198.97;5083818;28;20070;-60
2022/09/28 10:27:17;;;;;;;1.95;0.60;;;;;;;18.30;59.52;97174.25;5092813;28;20046;-57
2022/09/28 10:30:23;;;;;;;2.25;0.60;;;;;;;17.77;58.28;97152.47;5087253;28;20539;-56
2022/09/28 10:33:31;;;;;;;0.47;0.28;;;;;;;17.61;58.17;97180.81;5089475;28;20067;-56
2022/09/28 10:36:16;;;;;;;1.45;0.55;;;;;;;18.43;57.29;97168.19;5060883;28;20071;-54
2022/09/28 10:39:02;;;;;;;5.13;0.32;;;;;;;17.39;59.55;97163.28;5072497;28;20496;-55
2022/09/28 10:41:55;;;;;;;2.90;0.40;;;;;;;16.71;61.32;97183.69;5034663;28;20049;-56
2022/09/28 10:45:18;;;;;;;0.50;0.32;;;;;;;16.30;61.94;97172.56;5048371;28;20768;-53
2022/09/28 10:48:12;;;;;;;1.05;0.40;;;;;;;16.28;62.19;97189.56;5076452;28;20124;-55
2022/09/28 10:51:04;;;;;;;1.40;0.45;;;;;;;17.58;60.43;97167.13;5088739;28;20079;-54
2022/09/28 10:54:01;;;;;;;1.63;0.50;;;;;;;18.46;61.03;97176.59;5066651;28;20407;-48
2022/09/28 10:57:00;;;;;;;1.27;0.40;;;;;;;18.93;58.40;97164.59;5074631;28;20063;-53
2022/09/28 10:59:55;;;;;;;0.63;0.40;;;;;;;18.28;58.62;97141.84;5091486;28;20085;-56
2022/09/28 11:02:43;;;;;;;2.00;0.50;;;;;;;17.76;61.39;97161.38;5097017;28;20120;-54
2022/09/28 11:05:34;;;;;;;1.88;0.30;;;;;;;16.65;63.89;97160.63;5078977;28;20151;-57
2022/09/28 11:08:26;;;;;;;0.38;0.20;;;;;;;16.36;68.24;97163.91;5103211;28;20439;-46
2022/09/28 11:11:18;;;;;;;0.98;0.40;;;;;;;17.34;63.55;97154.09;5116083;27;20047;-50
2022/09/28 11:14:26;;;;;;;2.42;0.50;;;;;;;16.86;63.52;97149.25;5101205;28;20074;-50
2022/09/28 11:17:40;;;;;;;1.67;0.60;;;;;;;16.56;64.52;97157.25;5092829;28;20083;-63
2022/09/28 11:20:32;;;;;;;0.93;0.40;;;;;;;15.91;67.44;97144.50;5090341;28;20040;-63
2022/09/28 11:23:25;;;;;;;0.65;0.43;;;;;;;16.08;67.19;97153.94;5090356;28;20082;-63
2022/09/28 11:26:14;;;;;;;1.08;0.30;;;;;;;16.13;66.49;97156.88;5093994;28;20040;-65
2022/09/28 11:28:58;;;;;;;5.63;0.30;;;;;;;15.60;67.80;97141.78;5094902;28;20044;-65
2022/09/28 11:32:04;;;;;;;0.43;0.32;;;;;;;15.46;68.32;97132.00;5094609;28;20081;-64
2022/09/28 11:34:58;;;;;;;1.15;0.30;;;;;;;15.41;69.38;97135.16;5092601;28;20057;-64
2022/09/28 11:38:30;;;;;;;0.85;0.40;;;;;;;15.39;69.51;97137.19;5092301;28;20036;-65
2022/09/28 11:41:50;;;;;;;1.48;0.32;;;;;;;15.08;69.96;97120.38;5066417;28;20048;-65
2022/09/28 11:44:37;;;;;;;1.02;0.47;;;;;;;15.10;70.60;97123.66;5091890;28;20170;-65
2022/09/28 11:47:41;;;;;;;0.40;0.20;;;;;;;14.92;71.54;97116.03;5087496;28;20118;-69
2022/09/28 11:50:53;;;;;;;2.17;0.40;;;;;;;14.73;72.91;97131.25;5106927;28;20169;-69
2022/09/28 11:53:44;;;;;;;0.40;0.20;;;;;;;14.89;72.97;97126.91;5094123;28;20031;-69
2022/09/28 11:56:37;;;;;;;1.63;0.30;;;;;;;14.94;73.09;97131.66;5109794;28;20035;-69
2022/09/28 11:59:33;;;;;;;0.60;0.30;;;;;;;14.80;73.66;97125.34;5085828;28;20051;-68
2022/09/28 12:02:27;;;;;;;1.08;0.40;;;;;;;14.69;74.02;97122.03;5094205;28;20046;-68
2022/09/28 12:05:26;;;;;;;1.77;0.50;;;;;;;14.69;74.20;97119.41;5018229;28;20045;-67
2022/09/28 12:08:30;;;;;;;0.77;0.38;;;;;;;14.61;75.18;97111.53;5028060;28;20045;-68
2022/09/28 12:11:35;;;;;;;2.50;0.40;;;;;;;14.74;75.23;97110.97;5041422;28;20053;-69
2022/09/28 12:14:40;;;;;;;0.70;0.45;;;;;;;14.87;74.96;97118.34;5015729;28;20441;-69
2022/09/28 12:17:24;;;;;;;1.23;0.50;;;;;;;15.03;75.04;97117.47;5056449;28;20052;-68
2022/09/28 12:20:18;;;;;;;0.95;0.30;;;;;;;14.97;74.61;97118.13;5037420;28;20044;-68
2022/09/28 12:23:19;;;;;;;0.63;0.30;;;;;;;14.84;74.22;97103.72;5052222;28;20099;-68
2022/09/28 12:26:20;;;;;;;1.40;0.40;;;;;;;14.83;74.59;97119.72;5036340;28;20047;-67
2022/09/28 12:29:11;;;;;;;0.57;0.30;;;;;;;15.39;73.07;97108.97;5017207;28;20077;-67
2022/09/28 12:32:19;;;;;;;;;;;;;;;16.45;68.45;97108.31;5055179;28;20040;-64
2022/09/28 12:35:22;;;;;;;2.35;0.28;;;;;;;16.48;68.59;97094.72;5043741;28;20332;-64
2022/09/28 12:38:07;;;;;;;2.58;0.45;;;;;;;16.90;67.52;97102.13;5031263;28;20049;-64
2022/09/28 12:41:15;;;;;;;0.68;0.28;;;;;;;16.53;68.85;97115.31;5034482;28;20047;-66
2022/09/28 12:44:16;;;;;;;1.42;0.52;;;;;;;16.49;68.95;97109.56;5045420;28;20102;-64
2022/09/28 12:47:37;;;;;;;0.90;0.25;;;;;;;17.00;67.20;97115.88;5045407;28;20041;-65
2022/09/28 12:50:33;;;;;;;0.77;0.30;;;;;;;17.27;64.82;97110.06;5080394;28;20530;-66
2022/09/28 12:53:31;;;;;;;0.60;0.28;;;;;;;16.51;68.71;97107.59;5075632;28;20048;-63
2022/09/28 12:56:30;;;;;;;3.22;0.30;;;;;;;16.09;69.63;97131.81;5065052;28;20054;-65
2022/09/28 12:59:29;;;;;;;1.05;0.20;;;;;;;15.85;70.16;97124.91;5063886;28;20394;-62
2022/09/28 13:02:45;;;;;;;1.35;0.30;;;;;;;16.42;68.61;97135.13;5085753;28;20386;-61
2022/09/28 13:05:33;;;;;;;0.70;0.40;;;;;;;16.44;68.36;97133.91;5071284;28;20048;-60
2022/09/28 13:08:36;;;;;;;1.75;0.40;;;;;;;16.10;69.11;97128.19;5072924;28;20217;-62
2022/09/28 13:11:45;;;;;;;1.55;0.40;;;;;;;16.30;69.36;97140.03;5088477;28;20040;-62
2022/09/28 13:14:43;;;;;;;1.20;0.77;;;;;;;16.34;69.61;97128.91;5091458;28;20475;-62
2022/09/28 13:17:37;;;;;;;1.23;0.30;;;;;;;16.16;70.90;97126.63;5098838;28;20070;-61
2022/09/28 13:20:50;;;;;;;0.63;0.30;;;;;;;16.01;71.22;97122.16;5093889;28;20114;-61
2022/09/28 13:23:36;;;;;;;1.48;0.40;;;;;;;15.97;71.34;97133.22;5094461;28;20047;-61
2022/09/28 13:26:25;;;;;;;0.40;0.30;;;;;;;15.98;71.91;97129.59;5095589;28;20135;-68
2022/09/28 13:29:13;;;;;;;1.00;0.50;;;;;;;16.02;71.62;97117.69;5104538;28;20368;-65
2022/09/28 13:32:00;;;;;;;1.08;0.30;;;;;;;16.13;72.06;97122.53;5100289;28;20705;-70
2022/09/28 13:34:49;;;;;;;0.90;0.55;;;;;;;15.97;72.87;97117.38;5118007;27;20046;-60
2022/09/28 13:37:34;;;;;;;1.05;0.30;;;;;;;15.96;73.98;97111.25;5092189;28;20076;-64
2022/09/28 13:40:57;;;;;;;1.55;0.50;;;;;;;15.68;74.40;97103.13;5102969;28;20056;-60
2022/09/28 13:43:46;;;;;;;0.63;0.50;;;;;;;15.78;73.45;97111.63;5094024;28;20119;-60
2022/09/28 13:46:54;;;;;;;1.88;0.50;;;;;;;15.73;73.81;97101.56;5088999;28;20137;-60
2022/09/28 13:50:09;;;;;;;1.35;0.50;;;;;;;15.91;74.27;97107.53;5093850;28;20141;-63
2022/09/28 13:52:56;;;;;;;0.68;0.40;;;;;;;16.02;73.69;97122.97;5099068;28;20128;-60
2022/09/28 13:56:29;;;;;;;0.73;0.30;;;;;;;16.33;73.40;97123.81;5076832;28;20060;-59